sensor_id;sensor_type;location;lat;lon;timestamp;P1;durP1;ratioP1;P2;durP2;ratioP2
59074;SDS011;44860;53.020;6.738;2023-08-08T00:01:06;4.80;;;2.90;;
59074;SDS011;44860;53.020;6.738;2023-08-08T00:03:32;4.80;;;2.50;;
59074;SDS011;44860;53.020;6.738;2023-08-08T00:05:59;3.88;;;2.60;;
59074;SDS011;44860;53.020;6.738;2023-08-08T00:08:25;3.83;;;2.65;;
59074;SDS011;44860;53.020;6.738;2023-08-08T00:10:50;5.65;;;2.75;;
59074;SDS011;44860;53.020;6.738;2023-08-08T00:13:16;5.20;;;2.83;;
59074;SDS011;44860;53.020;6.738;2023-08-08T00:15:42;4.47;;;2.75;;
59074;SDS011;44860;53.020;6.738;2023-08-08T00:18:08;6.15;;;3.13;;
59074;SDS011;44860;53.020;6.738;2023-08-08T00:20:33;5.40;;;2.80;;
59074;SDS011;44860;53.020;6.738;2023-08-08T00:22:59;4.57;;;2.88;;
59074;SDS011;44860;53.020;6.738;2023-08-08T00:25:25;5.95;;;2.85;;
59074;SDS011;44860;53.020;6.738;2023-08-08T00:27:51;4.18;;;2.70;;
59074;SDS011;44860;53.020;6.738;2023-08-08T00:30:16;6.70;;;3.17;;
59074;SDS011;44860;53.020;6.738;2023-08-08T00:32:42;4.60;;;3.00;;
59074;SDS011;44860;53.020;6.738;2023-08-08T00:35:08;7.88;;;3.15;;
59074;SDS011;44860;53.020;6.738;2023-08-08T00:37:34;5.55;;;2.70;;
59074;SDS011;44860;53.020;6.738;2023-08-08T00:39:59;5.47;;;2.90;;
59074;SDS011;44860;53.020;6.738;2023-08-08T00:42:25;4.68;;;2.88;;
59074;SDS011;44860;53.020;6.738;2023-08-08T00:44:51;3.75;;;2.80;;
59074;SDS011;44860;53.020;6.738;2023-08-08T00:47:17;5.70;;;2.88;;
59074;SDS011;44860;53.020;6.738;2023-08-08T00:49:43;5.05;;;2.90;;
59074;SDS011;44860;53.020;6.738;2023-08-08T00:52:11;4.65;;;3.00;;
59074;SDS011;44860;53.020;6.738;2023-08-08T00:54:38;9.38;;;3.55;;
59074;SDS011;44860;53.020;6.738;2023-08-08T00:57:04;5.63;;;2.65;;
59074;SDS011;44860;53.020;6.738;2023-08-08T00:59:30;7.10;;;3.08;;
59074;SDS011;44860;53.020;6.738;2023-08-08T01:01:56;7.25;;;3.00;;
59074;SDS011;44860;53.020;6.738;2023-08-08T01:04:23;6.55;;;3.17;;
59074;SDS011;44860;53.020;6.738;2023-08-08T01:06:53;6.05;;;3.35;;
59074;SDS011;44860;53.020;6.738;2023-08-08T01:09:36;7.37;;;3.33;;
59074;SDS011;44860;53.020;6.738;2023-08-08T01:12:07;8.90;;;3.60;;
59074;SDS011;44860;53.020;6.738;2023-08-08T01:14:35;6.15;;;3.40;;
59074;SDS011;44860;53.020;6.738;2023-08-08T01:17:03;12.05;;;3.88;;
59074;SDS011;44860;53.020;6.738;2023-08-08T01:19:31;6.63;;;3.28;;
59074;SDS011;44860;53.020;6.738;2023-08-08T01:22:04;4.85;;;3.10;;
59074;SDS011;44860;53.020;6.738;2023-08-08T01:24:32;5.53;;;3.50;;
59074;SDS011;44860;53.020;6.738;2023-08-08T01:27:01;6.07;;;3.78;;
59074;SDS011;44860;53.020;6.738;2023-08-08T01:29:28;7.93;;;3.60;;
59074;SDS011;44860;53.020;6.738;2023-08-08T01:31:54;5.32;;;3.58;;
59074;SDS011;44860;53.020;6.738;2023-08-08T01:34:20;6.88;;;3.63;;
59074;SDS011;44860;53.020;6.738;2023-08-08T01:36:48;6.10;;;3.65;;
59074;SDS011;44860;53.020;6.738;2023-08-08T01:39:20;5.65;;;3.45;;
59074;SDS011;44860;53.020;6.738;2023-08-08T01:41:50;7.75;;;3.80;;
59074;SDS011;44860;53.020;6.738;2023-08-08T01:44:19;8.73;;;3.80;;
59074;SDS011;44860;53.020;6.738;2023-08-08T01:46:46;9.60;;;3.85;;
59074;SDS011;44860;53.020;6.738;2023-08-08T01:49:12;7.43;;;3.30;;
59074;SDS011;44860;53.020;6.738;2023-08-08T01:51:37;4.13;;;3.50;;
59074;SDS011;44860;53.020;6.738;2023-08-08T01:54:03;7.10;;;3.63;;
59074;SDS011;44860;53.020;6.738;2023-08-08T01:56:29;7.10;;;4.20;;
59074;SDS011;44860;53.020;6.738;2023-08-08T01:58:54;11.48;;;4.60;;
59074;SDS011;44860;53.020;6.738;2023-08-08T02:01:20;7.13;;;3.88;;
59074;SDS011;44860;53.020;6.738;2023-08-08T02:03:46;6.40;;;3.70;;
59074;SDS011;44860;53.020;6.738;2023-08-08T02:06:11;4.97;;;3.60;;
59074;SDS011;44860;53.020;6.738;2023-08-08T02:08:37;6.35;;;3.75;;
59074;SDS011;44860;53.020;6.738;2023-08-08T02:11:03;8.13;;;4.10;;
59074;SDS011;44860;53.020;6.738;2023-08-08T02:13:28;7.65;;;3.90;;
59074;SDS011;44860;53.020;6.738;2023-08-08T02:15:55;8.07;;;3.97;;
59074;SDS011;44860;53.020;6.738;2023-08-08T02:18:21;7.53;;;3.97;;
59074;SDS011;44860;53.020;6.738;2023-08-08T02:20:46;9.73;;;4.50;;
59074;SDS011;44860;53.020;6.738;2023-08-08T02:23:12;5.43;;;4.15;;
59074;SDS011;44860;53.020;6.738;2023-08-08T02:25:38;7.18;;;3.92;;
59074;SDS011;44860;53.020;6.738;2023-08-08T02:28:04;8.52;;;4.00;;
59074;SDS011;44860;53.020;6.738;2023-08-08T02:30:30;5.80;;;3.60;;
59074;SDS011;44860;53.020;6.738;2023-08-08T02:32:55;6.13;;;3.95;;
59074;SDS011;44860;53.020;6.738;2023-08-08T02:35:21;8.45;;;4.13;;
59074;SDS011;44860;53.020;6.738;2023-08-08T02:37:47;6.63;;;3.78;;
59074;SDS011;44860;53.020;6.738;2023-08-08T02:40:13;5.82;;;3.90;;
59074;SDS011;44860;53.020;6.738;2023-08-08T02:42:38;10.18;;;4.10;;
59074;SDS011;44860;53.020;6.738;2023-08-08T02:45:04;7.30;;;4.00;;
59074;SDS011;44860;53.020;6.738;2023-08-08T02:47:30;6.32;;;4.03;;
59074;SDS011;44860;53.020;6.738;2023-08-08T02:49:56;5.47;;;3.95;;
59074;SDS011;44860;53.020;6.738;2023-08-08T02:52:22;9.70;;;4.57;;
59074;SDS011;44860;53.020;6.738;2023-08-08T02:54:47;5.57;;;4.03;;
59074;SDS011;44860;53.020;6.738;2023-08-08T02:57:13;9.93;;;4.20;;
59074;SDS011;44860;53.020;6.738;2023-08-08T02:59:39;6.32;;;4.05;;
59074;SDS011;44860;53.020;6.738;2023-08-08T03:02:04;6.90;;;4.10;;
59074;SDS011;44860;53.020;6.738;2023-08-08T03:04:30;6.30;;;4.20;;
59074;SDS011;44860;53.020;6.738;2023-08-08T03:06:56;7.65;;;4.35;;
59074;SDS011;44860;53.020;6.738;2023-08-08T03:09:21;7.18;;;4.03;;
59074;SDS011;44860;53.020;6.738;2023-08-08T03:11:47;6.85;;;3.88;;
59074;SDS011;44860;53.020;6.738;2023-08-08T03:14:13;6.47;;;4.03;;
59074;SDS011;44860;53.020;6.738;2023-08-08T03:16:39;6.68;;;3.95;;
59074;SDS011;44860;53.020;6.738;2023-08-08T03:19:04;7.78;;;3.90;;
59074;SDS011;44860;53.020;6.738;2023-08-08T03:21:30;7.80;;;4.07;;
59074;SDS011;44860;53.020;6.738;2023-08-08T03:23:56;9.50;;;4.45;;
59074;SDS011;44860;53.020;6.738;2023-08-08T03:26:22;7.18;;;3.97;;
59074;SDS011;44860;53.020;6.738;2023-08-08T03:28:48;8.43;;;4.05;;
59074;SDS011;44860;53.020;6.738;2023-08-08T03:31:16;7.15;;;4.03;;
59074;SDS011;44860;53.020;6.738;2023-08-08T03:33:42;6.75;;;4.00;;
59074;SDS011;44860;53.020;6.738;2023-08-08T03:36:09;7.63;;;4.00;;
59074;SDS011;44860;53.020;6.738;2023-08-08T03:38:34;9.95;;;3.83;;
59074;SDS011;44860;53.020;6.738;2023-08-08T03:41:01;11.95;;;3.88;;
59074;SDS011;44860;53.020;6.738;2023-08-08T03:43:27;7.38;;;3.80;;
59074;SDS011;44860;53.020;6.738;2023-08-08T03:45:52;6.72;;;3.17;;
59074;SDS011;44860;53.020;6.738;2023-08-08T03:48:18;6.63;;;2.97;;
59074;SDS011;44860;53.020;6.738;2023-08-08T03:50:44;8.38;;;2.90;;
59074;SDS011;44860;53.020;6.738;2023-08-08T03:53:11;9.20;;;2.92;;
59074;SDS011;44860;53.020;6.738;2023-08-08T03:55:37;5.78;;;3.15;;
59074;SDS011;44860;53.020;6.738;2023-08-08T03:58:03;5.97;;;3.15;;
59074;SDS011;44860;53.020;6.738;2023-08-08T04:00:29;7.95;;;3.45;;
59074;SDS011;44860;53.020;6.738;2023-08-08T04:02:55;9.85;;;3.40;;
59074;SDS011;44860;53.020;6.738;2023-08-08T04:05:21;9.50;;;3.65;;
59074;SDS011;44860;53.020;6.738;2023-08-08T04:07:46;9.00;;;3.83;;
59074;SDS011;44860;53.020;6.738;2023-08-08T04:10:12;7.22;;;3.80;;
59074;SDS011;44860;53.020;6.738;2023-08-08T04:12:38;11.68;;;4.80;;
59074;SDS011;44860;53.020;6.738;2023-08-08T04:15:04;8.25;;;4.40;;
59074;SDS011;44860;53.020;6.738;2023-08-08T04:17:30;7.88;;;4.28;;
59074;SDS011;44860;53.020;6.738;2023-08-08T04:19:55;7.45;;;3.83;;
59074;SDS011;44860;53.020;6.738;2023-08-08T04:22:22;7.97;;;3.75;;
59074;SDS011;44860;53.020;6.738;2023-08-08T04:24:47;10.13;;;3.78;;
59074;SDS011;44860;53.020;6.738;2023-08-08T04:27:13;5.75;;;3.42;;
59074;SDS011;44860;53.020;6.738;2023-08-08T04:29:39;9.00;;;3.85;;
59074;SDS011;44860;53.020;6.738;2023-08-08T04:32:04;8.32;;;3.90;;
59074;SDS011;44860;53.020;6.738;2023-08-08T04:34:30;8.88;;;4.10;;
59074;SDS011;44860;53.020;6.738;2023-08-08T04:36:56;7.18;;;3.90;;
59074;SDS011;44860;53.020;6.738;2023-08-08T04:39:22;7.30;;;3.65;;
59074;SDS011;44860;53.020;6.738;2023-08-08T04:41:47;6.38;;;4.13;;
59074;SDS011;44860;53.020;6.738;2023-08-08T04:44:13;7.53;;;3.65;;
59074;SDS011;44860;53.020;6.738;2023-08-08T04:46:39;5.50;;;3.30;;
59074;SDS011;44860;53.020;6.738;2023-08-08T04:49:04;8.30;;;4.32;;
59074;SDS011;44860;53.020;6.738;2023-08-08T04:51:30;6.43;;;3.67;;
59074;SDS011;44860;53.020;6.738;2023-08-08T04:53:57;7.97;;;4.03;;
59074;SDS011;44860;53.020;6.738;2023-08-08T04:56:23;10.27;;;3.38;;
59074;SDS011;44860;53.020;6.738;2023-08-08T04:58:48;5.22;;;3.20;;
59074;SDS011;44860;53.020;6.738;2023-08-08T05:01:14;5.68;;;3.08;;
59074;SDS011;44860;53.020;6.738;2023-08-08T05:03:42;7.10;;;2.90;;
59074;SDS011;44860;53.020;6.738;2023-08-08T05:06:08;11.00;;;3.30;;
59074;SDS011;44860;53.020;6.738;2023-08-08T05:08:34;9.82;;;2.80;;
59074;SDS011;44860;53.020;6.738;2023-08-08T05:10:59;8.80;;;2.70;;
59074;SDS011;44860;53.020;6.738;2023-08-08T05:13:25;9.23;;;2.85;;
59074;SDS011;44860;53.020;6.738;2023-08-08T05:15:51;7.15;;;2.53;;
59074;SDS011;44860;53.020;6.738;2023-08-08T05:18:17;8.00;;;2.50;;
59074;SDS011;44860;53.020;6.738;2023-08-08T05:20:42;6.65;;;2.38;;
59074;SDS011;44860;53.020;6.738;2023-08-08T05:23:08;7.65;;;2.60;;
59074;SDS011;44860;53.020;6.738;2023-08-08T05:25:34;11.10;;;2.55;;
59074;SDS011;44860;53.020;6.738;2023-08-08T05:27:59;8.73;;;2.30;;
59074;SDS011;44860;53.020;6.738;2023-08-08T05:30:25;6.97;;;2.30;;
59074;SDS011;44860;53.020;6.738;2023-08-08T05:32:51;8.15;;;2.42;;
59074;SDS011;44860;53.020;6.738;2023-08-08T05:35:16;8.20;;;2.35;;
59074;SDS011;44860;53.020;6.738;2023-08-08T05:37:42;9.23;;;2.30;;
59074;SDS011;44860;53.020;6.738;2023-08-08T05:40:08;8.25;;;2.15;;
59074;SDS011;44860;53.020;6.738;2023-08-08T05:42:35;8.95;;;2.38;;
59074;SDS011;44860;53.020;6.738;2023-08-08T05:45:01;9.52;;;2.70;;
59074;SDS011;44860;53.020;6.738;2023-08-08T05:47:27;8.63;;;2.47;;
59074;SDS011;44860;53.020;6.738;2023-08-08T05:49:53;7.05;;;2.40;;
59074;SDS011;44860;53.020;6.738;2023-08-08T05:52:18;8.35;;;2.30;;
59074;SDS011;44860;53.020;6.738;2023-08-08T05:54:46;12.35;;;2.22;;
59074;SDS011;44860;53.020;6.738;2023-08-08T05:57:11;9.40;;;2.20;;
59074;SDS011;44860;53.020;6.738;2023-08-08T05:59:37;7.40;;;2.30;;
59074;SDS011;44860;53.020;6.738;2023-08-08T06:02:03;9.40;;;2.55;;
59074;SDS011;44860;53.020;6.738;2023-08-08T06:04:29;9.88;;;2.28;;
59074;SDS011;44860;53.020;6.738;2023-08-08T06:06:54;7.35;;;2.15;;
59074;SDS011;44860;53.020;6.738;2023-08-08T06:09:20;8.82;;;2.13;;
59074;SDS011;44860;53.020;6.738;2023-08-08T06:11:46;3.88;;;1.77;;
59074;SDS011;44860;53.020;6.738;2023-08-08T06:14:12;5.47;;;1.88;;
59074;SDS011;44860;53.020;6.738;2023-08-08T06:16:37;7.82;;;1.85;;
59074;SDS011;44860;53.020;6.738;2023-08-08T06:19:03;8.10;;;1.88;;
59074;SDS011;44860;53.020;6.738;2023-08-08T06:21:29;10.85;;;2.10;;
59074;SDS011;44860;53.020;6.738;2023-08-08T06:23:54;5.30;;;1.70;;
59074;SDS011;44860;53.020;6.738;2023-08-08T06:26:21;10.38;;;2.15;;
59074;SDS011;44860;53.020;6.738;2023-08-08T06:28:47;5.22;;;2.13;;
59074;SDS011;44860;53.020;6.738;2023-08-08T06:31:13;4.88;;;1.90;;
59074;SDS011;44860;53.020;6.738;2023-08-08T06:33:39;8.23;;;2.00;;
59074;SDS011;44860;53.020;6.738;2023-08-08T06:36:05;7.05;;;2.17;;
59074;SDS011;44860;53.020;6.738;2023-08-08T06:38:31;10.23;;;1.98;;
59074;SDS011;44860;53.020;6.738;2023-08-08T06:41:00;7.88;;;1.90;;
59074;SDS011;44860;53.020;6.738;2023-08-08T06:43:27;9.40;;;1.92;;
59074;SDS011;44860;53.020;6.738;2023-08-08T06:45:53;7.35;;;2.03;;
59074;SDS011;44860;53.020;6.738;2023-08-08T06:48:19;8.50;;;1.90;;
59074;SDS011;44860;53.020;6.738;2023-08-08T06:50:44;6.50;;;1.85;;
59074;SDS011;44860;53.020;6.738;2023-08-08T06:53:10;6.45;;;1.95;;
59074;SDS011;44860;53.020;6.738;2023-08-08T06:55:36;7.28;;;1.95;;
59074;SDS011;44860;53.020;6.738;2023-08-08T06:58:01;8.65;;;1.75;;
59074;SDS011;44860;53.020;6.738;2023-08-08T07:00:28;6.32;;;1.67;;
59074;SDS011;44860;53.020;6.738;2023-08-08T07:02:54;8.93;;;2.10;;
59074;SDS011;44860;53.020;6.738;2023-08-08T07:05:20;6.10;;;1.73;;
59074;SDS011;44860;53.020;6.738;2023-08-08T07:07:48;7.20;;;1.95;;
59074;SDS011;44860;53.020;6.738;2023-08-08T07:10:15;7.63;;;1.80;;
59074;SDS011;44860;53.020;6.738;2023-08-08T07:12:41;4.13;;;1.40;;
59074;SDS011;44860;53.020;6.738;2023-08-08T07:15:07;8.52;;;1.65;;
59074;SDS011;44860;53.020;6.738;2023-08-08T07:17:34;8.43;;;1.60;;
59074;SDS011;44860;53.020;6.738;2023-08-08T07:20:00;6.57;;;1.45;;
59074;SDS011;44860;53.020;6.738;2023-08-08T07:22:27;5.65;;;1.88;;
59074;SDS011;44860;53.020;6.738;2023-08-08T07:24:53;6.88;;;1.38;;
59074;SDS011;44860;53.020;6.738;2023-08-08T07:27:18;4.10;;;1.50;;
59074;SDS011;44860;53.020;6.738;2023-08-08T07:29:44;6.07;;;1.42;;
59074;SDS011;44860;53.020;6.738;2023-08-08T07:32:10;5.15;;;1.73;;
59074;SDS011;44860;53.020;6.738;2023-08-08T07:34:36;3.00;;;1.20;;
59074;SDS011;44860;53.020;6.738;2023-08-08T07:37:01;5.97;;;1.45;;
59074;SDS011;44860;53.020;6.738;2023-08-08T07:39:28;6.93;;;1.40;;
59074;SDS011;44860;53.020;6.738;2023-08-08T07:41:53;5.97;;;1.40;;
59074;SDS011;44860;53.020;6.738;2023-08-08T07:44:19;4.10;;;1.10;;
59074;SDS011;44860;53.020;6.738;2023-08-08T07:46:45;6.65;;;1.10;;
59074;SDS011;44860;53.020;6.738;2023-08-08T07:49:11;4.75;;;1.15;;
59074;SDS011;44860;53.020;6.738;2023-08-08T07:51:37;3.85;;;1.10;;
59074;SDS011;44860;53.020;6.738;2023-08-08T07:54:02;4.85;;;1.55;;
59074;SDS011;44860;53.020;6.738;2023-08-08T07:56:30;4.13;;;0.82;;
59074;SDS011;44860;53.020;6.738;2023-08-08T07:58:56;4.90;;;1.00;;
59074;SDS011;44860;53.020;6.738;2023-08-08T08:01:21;5.65;;;1.20;;
59074;SDS011;44860;53.020;6.738;2023-08-08T08:03:48;4.03;;;1.50;;
59074;SDS011;44860;53.020;6.738;2023-08-08T08:06:13;3.85;;;1.15;;
59074;SDS011;44860;53.020;6.738;2023-08-08T08:08:39;4.10;;;1.08;;
59074;SDS011;44860;53.020;6.738;2023-08-08T08:11:05;7.15;;;1.30;;
59074;SDS011;44860;53.020;6.738;2023-08-08T08:13:30;7.50;;;1.52;;
59074;SDS011;44860;53.020;6.738;2023-08-08T08:15:56;4.55;;;1.48;;
59074;SDS011;44860;53.020;6.738;2023-08-08T08:18:23;3.42;;;1.10;;
59074;SDS011;44860;53.020;6.738;2023-08-08T08:20:48;5.57;;;1.08;;
59074;SDS011;44860;53.020;6.738;2023-08-08T08:23:14;5.10;;;1.08;;
59074;SDS011;44860;53.020;6.738;2023-08-08T08:25:40;6.22;;;1.70;;
59074;SDS011;44860;53.020;6.738;2023-08-08T08:28:06;4.82;;;1.20;;
59074;SDS011;44860;53.020;6.738;2023-08-08T08:30:31;5.03;;;1.30;;
59074;SDS011;44860;53.020;6.738;2023-08-08T08:32:57;3.92;;;1.33;;
59074;SDS011;44860;53.020;6.738;2023-08-08T08:35:23;5.15;;;1.10;;
59074;SDS011;44860;53.020;6.738;2023-08-08T08:37:50;7.53;;;1.42;;
59074;SDS011;44860;53.020;6.738;2023-08-08T08:40:16;6.10;;;1.20;;
59074;SDS011;44860;53.020;6.738;2023-08-08T08:42:42;4.20;;;1.13;;
59074;SDS011;44860;53.020;6.738;2023-08-08T08:45:10;4.63;;;1.10;;
59074;SDS011;44860;53.020;6.738;2023-08-08T08:47:37;6.35;;;1.60;;
59074;SDS011;44860;53.020;6.738;2023-08-08T08:50:07;5.97;;;1.42;;
59074;SDS011;44860;53.020;6.738;2023-08-08T08:52:33;4.65;;;1.30;;
59074;SDS011;44860;53.020;6.738;2023-08-08T08:54:59;3.47;;;1.15;;
59074;SDS011;44860;53.020;6.738;2023-08-08T08:57:25;4.90;;;1.40;;
59074;SDS011;44860;53.020;6.738;2023-08-08T08:59:52;7.78;;;1.60;;
59074;SDS011;44860;53.020;6.738;2023-08-08T09:02:18;6.18;;;1.65;;
59074;SDS011;44860;53.020;6.738;2023-08-08T09:04:44;5.85;;;1.42;;
59074;SDS011;44860;53.020;6.738;2023-08-08T09:07:10;4.25;;;1.42;;
59074;SDS011;44860;53.020;6.738;2023-08-08T09:09:37;5.10;;;1.35;;
59074;SDS011;44860;53.020;6.738;2023-08-08T09:12:04;4.45;;;1.73;;
59074;SDS011;44860;53.020;6.738;2023-08-08T09:14:30;7.45;;;1.60;;
59074;SDS011;44860;53.020;6.738;2023-08-08T09:16:56;4.85;;;1.50;;
59074;SDS011;44860;53.020;6.738;2023-08-08T09:19:23;4.65;;;1.50;;
59074;SDS011;44860;53.020;6.738;2023-08-08T09:21:49;5.25;;;1.58;;
59074;SDS011;44860;53.020;6.738;2023-08-08T09:24:16;4.30;;;1.45;;
59074;SDS011;44860;53.020;6.738;2023-08-08T09:26:43;5.50;;;1.40;;
59074;SDS011;44860;53.020;6.738;2023-08-08T09:29:13;7.43;;;1.63;;
59074;SDS011;44860;53.020;6.738;2023-08-08T09:31:39;5.35;;;1.67;;
59074;SDS011;44860;53.020;6.738;2023-08-08T09:34:05;4.75;;;1.67;;
59074;SDS011;44860;53.020;6.738;2023-08-08T09:36:31;5.63;;;1.40;;
59074;SDS011;44860;53.020;6.738;2023-08-08T09:38:58;8.30;;;1.60;;
59074;SDS011;44860;53.020;6.738;2023-08-08T09:41:24;7.28;;;1.75;;
59074;SDS011;44860;53.020;6.738;2023-08-08T09:43:51;5.07;;;1.55;;
59074;SDS011;44860;53.020;6.738;2023-08-08T09:46:18;6.43;;;1.38;;
59074;SDS011;44860;53.020;6.738;2023-08-08T09:48:44;6.03;;;1.45;;
59074;SDS011;44860;53.020;6.738;2023-08-08T09:51:11;6.68;;;1.88;;
59074;SDS011;44860;53.020;6.738;2023-08-08T09:53:38;3.92;;;1.42;;
59074;SDS011;44860;53.020;6.738;2023-08-08T09:56:04;4.20;;;1.35;;
59074;SDS011;44860;53.020;6.738;2023-08-08T09:58:31;6.00;;;1.95;;
59074;SDS011;44860;53.020;6.738;2023-08-08T10:00:57;8.30;;;1.67;;
59074;SDS011;44860;53.020;6.738;2023-08-08T10:03:23;6.10;;;1.60;;
59074;SDS011;44860;53.020;6.738;2023-08-08T10:05:50;6.45;;;1.58;;
59074;SDS011;44860;53.020;6.738;2023-08-08T10:08:15;4.28;;;1.58;;
59074;SDS011;44860;53.020;6.738;2023-08-08T10:10:42;6.10;;;1.70;;
59074;SDS011;44860;53.020;6.738;2023-08-08T10:13:10;4.88;;;1.63;;
59074;SDS011;44860;53.020;6.738;2023-08-08T10:15:45;7.43;;;1.83;;
59074;SDS011;44860;53.020;6.738;2023-08-08T10:18:12;3.83;;;1.50;;
59074;SDS011;44860;53.020;6.738;2023-08-08T10:20:40;5.25;;;1.42;;
59074;SDS011;44860;53.020;6.738;2023-08-08T10:23:15;6.68;;;1.50;;
59074;SDS011;44860;53.020;6.738;2023-08-08T10:25:44;6.43;;;1.55;;
59074;SDS011;44860;53.020;6.738;2023-08-08T10:28:11;7.93;;;1.45;;
59074;SDS011;44860;53.020;6.738;2023-08-08T10:30:51;5.07;;;1.58;;
59074;SDS011;44860;53.020;6.738;2023-08-08T10:33:23;11.10;;;1.80;;
59074;SDS011;44860;53.020;6.738;2023-08-08T10:35:54;8.87;;;1.70;;
59074;SDS011;44860;53.020;6.738;2023-08-08T10:38:24;44.40;;;4.70;;
59074;SDS011;44860;53.020;6.738;2023-08-08T10:40:58;3.45;;;1.42;;
59074;SDS011;44860;53.020;6.738;2023-08-08T10:43:27;6.80;;;2.05;;
59074;SDS011;44860;53.020;6.738;2023-08-08T10:45:57;4.97;;;1.63;;
59074;SDS011;44860;53.020;6.738;2023-08-08T10:48:25;5.28;;;1.70;;
59074;SDS011;44860;53.020;6.738;2023-08-08T10:50:53;8.10;;;1.90;;
59074;SDS011;44860;53.020;6.738;2023-08-08T10:53:22;4.88;;;1.60;;
59074;SDS011;44860;53.020;6.738;2023-08-08T10:55:56;4.40;;;2.00;;
59074;SDS011;44860;53.020;6.738;2023-08-08T10:58:34;8.70;;;1.90;;
59074;SDS011;44860;53.020;6.738;2023-08-08T11:01:00;7.15;;;1.67;;
59074;SDS011;44860;53.020;6.738;2023-08-08T11:03:26;5.03;;;1.80;;
59074;SDS011;44860;53.020;6.738;2023-08-08T11:05:54;5.00;;;1.80;;
59074;SDS011;44860;53.020;6.738;2023-08-08T11:08:20;6.00;;;1.55;;
59074;SDS011;44860;53.020;6.738;2023-08-08T11:10:50;5.35;;;1.60;;
59074;SDS011;44860;53.020;6.738;2023-08-08T11:13:19;8.95;;;1.88;;
59074;SDS011;44860;53.020;6.738;2023-08-08T11:15:45;4.88;;;1.75;;
59074;SDS011;44860;53.020;6.738;2023-08-08T11:18:12;5.78;;;1.52;;
59074;SDS011;44860;53.020;6.738;2023-08-08T11:20:38;3.60;;;1.17;;
59074;SDS011;44860;53.020;6.738;2023-08-08T11:23:05;8.75;;;2.28;;
59074;SDS011;44860;53.020;6.738;2023-08-08T11:25:35;6.22;;;1.70;;
59074;SDS011;44860;53.020;6.738;2023-08-08T11:28:02;4.75;;;1.65;;
59074;SDS011;44860;53.020;6.738;2023-08-08T11:30:32;3.75;;;1.33;;
59074;SDS011;44860;53.020;6.738;2023-08-08T11:33:00;4.43;;;1.65;;
59074;SDS011;44860;53.020;6.738;2023-08-08T11:35:26;9.32;;;1.73;;
59074;SDS011;44860;53.020;6.738;2023-08-08T11:37:55;5.78;;;1.60;;
59074;SDS011;44860;53.020;6.738;2023-08-08T11:40:23;7.70;;;1.55;;
59074;SDS011;44860;53.020;6.738;2023-08-08T11:42:50;6.10;;;1.58;;
59074;SDS011;44860;53.020;6.738;2023-08-08T11:45:17;6.03;;;1.52;;
59074;SDS011;44860;53.020;6.738;2023-08-08T11:47:43;3.92;;;1.40;;
59074;SDS011;44860;53.020;6.738;2023-08-08T11:50:13;3.65;;;1.33;;
59074;SDS011;44860;53.020;6.738;2023-08-08T11:52:42;5.85;;;1.42;;
59074;SDS011;44860;53.020;6.738;2023-08-08T11:55:10;4.63;;;1.30;;
59074;SDS011;44860;53.020;6.738;2023-08-08T11:57:36;4.70;;;1.20;;
59074;SDS011;44860;53.020;6.738;2023-08-08T12:00:04;4.25;;;1.67;;
59074;SDS011;44860;53.020;6.738;2023-08-08T12:02:34;9.25;;;2.72;;
59074;SDS011;44860;53.020;6.738;2023-08-08T12:05:04;6.40;;;3.35;;
59074;SDS011;44860;53.020;6.738;2023-08-08T12:07:34;8.40;;;3.72;;
59074;SDS011;44860;53.020;6.738;2023-08-08T12:10:02;5.38;;;2.45;;
59074;SDS011;44860;53.020;6.738;2023-08-08T12:12:31;4.13;;;1.38;;
59074;SDS011;44860;53.020;6.738;2023-08-08T12:15:02;4.65;;;1.08;;
59074;SDS011;44860;53.020;6.738;2023-08-08T12:17:31;5.80;;;2.37;;
59074;SDS011;44860;53.020;6.738;2023-08-08T12:20:00;5.78;;;1.60;;
59074;SDS011;44860;53.020;6.738;2023-08-08T12:22:28;5.95;;;1.40;;
59074;SDS011;44860;53.020;6.738;2023-08-08T12:24:54;5.43;;;1.33;;
59074;SDS011;44860;53.020;6.738;2023-08-08T12:27:20;5.60;;;1.40;;
59074;SDS011;44860;53.020;6.738;2023-08-08T12:29:45;5.60;;;1.95;;
59074;SDS011;44860;53.020;6.738;2023-08-08T12:32:11;5.85;;;1.58;;
59074;SDS011;44860;53.020;6.738;2023-08-08T12:34:37;7.05;;;1.50;;
59074;SDS011;44860;53.020;6.738;2023-08-08T12:37:02;6.43;;;1.75;;
59074;SDS011;44860;53.020;6.738;2023-08-08T12:39:29;6.53;;;1.50;;
59074;SDS011;44860;53.020;6.738;2023-08-08T12:41:54;4.10;;;1.23;;
59074;SDS011;44860;53.020;6.738;2023-08-08T12:44:20;5.93;;;1.42;;
59074;SDS011;44860;53.020;6.738;2023-08-08T12:46:46;5.03;;;1.60;;
59074;SDS011;44860;53.020;6.738;2023-08-08T12:49:12;4.70;;;1.50;;
59074;SDS011;44860;53.020;6.738;2023-08-08T12:51:37;3.63;;;1.40;;
59074;SDS011;44860;53.020;6.738;2023-08-08T12:54:03;5.18;;;1.10;;
59074;SDS011;44860;53.020;6.738;2023-08-08T12:56:29;4.13;;;1.10;;
59074;SDS011;44860;53.020;6.738;2023-08-08T12:58:54;4.22;;;1.63;;
59074;SDS011;44860;53.020;6.738;2023-08-08T13:01:20;5.50;;;1.27;;
59074;SDS011;44860;53.020;6.738;2023-08-08T13:03:46;6.32;;;1.05;;
59074;SDS011;44860;53.020;6.738;2023-08-08T13:06:12;5.70;;;1.40;;
59074;SDS011;44860;53.020;6.738;2023-08-08T13:08:38;5.47;;;1.55;;
59074;SDS011;44860;53.020;6.738;2023-08-08T13:11:04;5.90;;;1.40;;
59074;SDS011;44860;53.020;6.738;2023-08-08T13:13:30;7.22;;;1.67;;
59074;SDS011;44860;53.020;6.738;2023-08-08T13:15:56;4.63;;;1.20;;
59074;SDS011;44860;53.020;6.738;2023-08-08T13:18:22;4.43;;;1.35;;
59074;SDS011;44860;53.020;6.738;2023-08-08T13:20:48;6.10;;;1.38;;
59074;SDS011;44860;53.020;6.738;2023-08-08T13:23:13;5.22;;;1.25;;
59074;SDS011;44860;53.020;6.738;2023-08-08T13:25:39;7.15;;;1.20;;
59074;SDS011;44860;53.020;6.738;2023-08-08T13:28:06;3.55;;;1.20;;
59074;SDS011;44860;53.020;6.738;2023-08-08T13:30:32;4.30;;;1.55;;
59074;SDS011;44860;53.020;6.738;2023-08-08T13:32:59;5.25;;;1.45;;
59074;SDS011;44860;53.020;6.738;2023-08-08T13:35:24;4.07;;;1.55;;
59074;SDS011;44860;53.020;6.738;2023-08-08T13:37:50;5.53;;;1.58;;
59074;SDS011;44860;53.020;6.738;2023-08-08T13:40:17;4.00;;;1.40;;
59074;SDS011;44860;53.020;6.738;2023-08-08T13:42:43;6.25;;;1.80;;
59074;SDS011;44860;53.020;6.738;2023-08-08T13:45:13;5.88;;;1.60;;
59074;SDS011;44860;53.020;6.738;2023-08-08T13:47:39;6.25;;;1.42;;
59074;SDS011;44860;53.020;6.738;2023-08-08T13:50:05;5.65;;;1.42;;
59074;SDS011;44860;53.020;6.738;2023-08-08T13:52:31;5.85;;;1.40;;
59074;SDS011;44860;53.020;6.738;2023-08-08T13:54:58;4.60;;;1.30;;
59074;SDS011;44860;53.020;6.738;2023-08-08T13:57:24;4.85;;;1.13;;
59074;SDS011;44860;53.020;6.738;2023-08-08T13:59:50;6.78;;;1.67;;
59074;SDS011;44860;53.020;6.738;2023-08-08T14:02:15;5.25;;;1.77;;
59074;SDS011;44860;53.020;6.738;2023-08-08T14:04:43;4.15;;;1.27;;
59074;SDS011;44860;53.020;6.738;2023-08-08T14:07:10;5.75;;;1.67;;
59074;SDS011;44860;53.020;6.738;2023-08-08T14:09:36;5.05;;;1.60;;
59074;SDS011;44860;53.020;6.738;2023-08-08T14:12:02;4.93;;;1.55;;
59074;SDS011;44860;53.020;6.738;2023-08-08T14:14:28;4.95;;;1.30;;
59074;SDS011;44860;53.020;6.738;2023-08-08T14:16:54;6.35;;;1.58;;
59074;SDS011;44860;53.020;6.738;2023-08-08T14:19:19;4.68;;;1.55;;
59074;SDS011;44860;53.020;6.738;2023-08-08T14:21:45;5.10;;;1.40;;
59074;SDS011;44860;53.020;6.738;2023-08-08T14:24:11;5.68;;;1.40;;
59074;SDS011;44860;53.020;6.738;2023-08-08T14:26:36;4.82;;;1.40;;
59074;SDS011;44860;53.020;6.738;2023-08-08T14:29:02;9.05;;;1.88;;
59074;SDS011;44860;53.020;6.738;2023-08-08T14:31:28;6.50;;;1.45;;
59074;SDS011;44860;53.020;6.738;2023-08-08T14:33:54;4.97;;;1.30;;
59074;SDS011;44860;53.020;6.738;2023-08-08T14:36:19;5.00;;;1.38;;
59074;SDS011;44860;53.020;6.738;2023-08-08T14:38:45;5.20;;;1.40;;
59074;SDS011;44860;53.020;6.738;2023-08-08T14:41:11;4.65;;;1.40;;
59074;SDS011;44860;53.020;6.738;2023-08-08T14:43:36;9.50;;;1.60;;